sensor_id;sensor_type;location;lat;lon;timestamp;pressure;altitude;pressure_sealevel;temperature;humidity
9717;BME280;4897;43.570;27.832;2023-02-14T00:02:06;100551.09;;;-2.05;100.00
9717;BME280;4897;43.570;27.832;2023-02-14T00:04:33;100527.03;;;-2.38;100.00
9717;BME280;4897;43.570;27.832;2023-02-14T00:07:02;100557.56;;;-2.37;100.00
9717;BME280;4897;43.570;27.832;2023-02-14T00:09:30;100545.91;;;-2.12;100.00
9717;BME280;4897;43.570;27.832;2023-02-14T00:11:58;100522.50;;;-2.24;100.00
9717;BME280;4897;43.570;27.832;2023-02-14T00:14:25;100542.16;;;-1.90;100.00
9717;BME280;4897;43.570;27.832;2023-02-14T00:17:09;100537.50;;;-1.67;100.00
9717;BME280;4897;43.570;27.832;2023-02-14T00:19:36;100535.56;;;-1.56;100.00
9717;BME280;4897;43.570;27.832;2023-02-14T00:22:03;100515.53;;;-1.60;100.00
9717;BME280;4897;43.570;27.832;2023-02-14T00:24:31;100532.78;;;-1.45;100.00
9717;BME280;4897;43.570;27.832;2023-02-14T00:26:59;100501.44;;;-1.53;100.00
9717;BME280;4897;43.570;27.832;2023-02-14T00:29:27;100457.16;;;-1.71;100.00
9717;BME280;4897;43.570;27.832;2023-02-14T00:31:55;100497.66;;;-1.34;100.00
9717;BME280;4897;43.570;27.832;2023-02-14T00:34:22;100500.19;;;-1.29;100.00
9717;BME280;4897;43.570;27.832;2023-02-14T00:36:48;100383.31;;;-2.00;100.00
9717;BME280;4897;43.570;27.832;2023-02-14T00:39:17;100496.69;;;-1.28;100.00
9717;BME280;4897;43.570;27.832;2023-02-14T00:41:44;100490.69;;;-1.36;100.00
9717;BME280;4897;43.570;27.832;2023-02-14T00:44:13;100478.44;;;-1.36;100.00
9717;BME280;4897;43.570;27.832;2023-02-14T00:46:40;100456.88;;;-1.54;100.00
9717;BME280;4897;43.570;27.832;2023-02-14T00:49:07;100469.91;;;-1.48;100.00
9717;BME280;4897;43.570;27.832;2023-02-14T00:51:34;100438.00;;;-1.78;100.00
9717;BME280;4897;43.570;27.832;2023-02-14T00:54:01;100450.97;;;-1.67;100.00
9717;BME280;4897;43.570;27.832;2023-02-14T00:56:28;100447.41;;;-1.63;100.00
9717;BME280;4897;43.570;27.832;2023-02-14T00:58:55;100441.97;;;-1.51;100.00
9717;BME280;4897;43.570;27.832;2023-02-14T01:01:24;100435.00;;;-1.53;100.00
9717;BME280;4897;43.570;27.832;2023-02-14T01:03:50;100430.88;;;-1.68;100.00
9717;BME280;4897;43.570;27.832;2023-02-14T01:06:17;100437.44;;;-1.99;100.00
9717;BME280;4897;43.570;27.832;2023-02-14T01:08:44;100435.78;;;-2.05;100.00
9717;BME280;4897;43.570;27.832;2023-02-14T01:11:13;100432.09;;;-1.90;100.00
9717;BME280;4897;43.570;27.832;2023-02-14T01:13:41;100441.03;;;-2.06;100.00
9717;BME280;4897;43.570;27.832;2023-02-14T01:16:10;100435.84;;;-2.09;100.00
9717;BME280;4897;43.570;27.832;2023-02-14T01:18:39;100406.09;;;-2.05;100.00
9717;BME280;4897;43.570;27.832;2023-02-14T01:21:11;100437.41;;;-1.96;100.00
9717;BME280;4897;43.570;27.832;2023-02-14T01:23:38;100412.41;;;-2.20;100.00
9717;BME280;4897;43.570;27.832;2023-02-14T01:26:06;100431.66;;;-2.22;100.00
9717;BME280;4897;43.570;27.832;2023-02-14T01:28:34;100414.41;;;-2.38;100.00
9717;BME280;4897;43.570;27.832;2023-02-14T01:31:06;100395.50;;;-2.62;100.00
9717;BME280;4897;43.570;27.832;2023-02-14T01:33:33;100392.88;;;-2.62;100.00
9717;BME280;4897;43.570;27.832;2023-02-14T01:36:01;100430.50;;;-2.03;100.00
9717;BME280;4897;43.570;27.832;2023-02-14T01:38:28;100424.81;;;-1.73;100.00
9717;BME280;4897;43.570;27.832;2023-02-14T01:40:55;100416.66;;;-1.53;100.00
9717;BME280;4897;43.570;27.832;2023-02-14T01:43:22;100413.88;;;-1.46;100.00
9717;BME280;4897;43.570;27.832;2023-02-14T01:45:49;100401.72;;;-1.50;100.00
9717;BME280;4897;43.570;27.832;2023-02-14T01:48:18;100400.59;;;-1.34;100.00
9717;BME280;4897;43.570;27.832;2023-02-14T01:50:47;100397.00;;;-1.30;100.00
9717;BME280;4897;43.570;27.832;2023-02-14T01:53:19;100388.00;;;-1.17;100.00
9717;BME280;4897;43.570;27.832;2023-02-14T01:55:51;100265.81;;;-1.77;100.00
9717;BME280;4897;43.570;27.832;2023-02-14T01:58:20;100342.53;;;-1.16;100.00
9717;BME280;4897;43.570;27.832;2023-02-14T02:00:49;100372.78;;;-0.97;100.00
9717;BME280;4897;43.570;27.832;2023-02-14T02:03:23;100357.97;;;-1.01;100.00
9717;BME280;4897;43.570;27.832;2023-02-14T02:05:54;100333.63;;;-1.07;100.00
9717;BME280;4897;43.570;27.832;2023-02-14T02:08:25;100348.03;;;-0.84;100.00
9717;BME280;4897;43.570;27.832;2023-02-14T02:10:52;100335.59;;;-0.75;100.00
9717;BME280;4897;43.570;27.832;2023-02-14T02:13:20;100344.19;;;-0.67;100.00
9717;BME280;4897;43.570;27.832;2023-02-14T02:15:57;100348.72;;;-0.75;100.00
9717;BME280;4897;43.570;27.832;2023-02-14T02:18:32;100332.28;;;-0.84;100.00
9717;BME280;4897;43.570;27.832;2023-02-14T02:24:12;100337.44;;;-0.81;100.00
9717;BME280;4897;43.570;27.832;2023-02-14T02:27:06;100340.81;;;-0.74;100.00
9717;BME280;4897;43.570;27.832;2023-02-14T02:38:56;100325.31;;;-0.88;100.00
9717;BME280;4897;43.570;27.832;2023-02-14T02:41:32;100349.41;;;-0.66;100.00
9717;BME280;4897;43.570;27.832;2023-02-14T02:44:10;100347.13;;;-0.83;100.00
9717;BME280;4897;43.570;27.832;2023-02-14T02:46:40;100338.78;;;-1.03;100.00
9717;BME280;4897;43.570;27.832;2023-02-14T02:49:19;100336.78;;;-0.92;100.00
9717;BME280;4897;43.570;27.832;2023-02-14T02:52:09;100320.84;;;-0.83;100.00
9717;BME280;4897;43.570;27.832;2023-02-14T02:54:59;100334.03;;;-0.84;100.00
9717;BME280;4897;43.570;27.832;2023-02-14T02:57:32;100324.44;;;-0.87;100.00
9717;BME280;4897;43.570;27.832;2023-02-14T03:00:01;100325.09;;;-0.75;100.00
9717;BME280;4897;43.570;27.832;2023-02-14T03:02:31;100320.88;;;-0.43;100.00
9717;BME280;4897;43.570;27.832;2023-02-14T03:05:19;100303.84;;;-0.27;100.00
9717;BME280;4897;43.570;27.832;2023-02-14T03:07:47;100287.16;;;-0.24;100.00
9717;BME280;4897;43.570;27.832;2023-02-14T03:10:18;100279.09;;;-0.17;100.00
9717;BME280;4897;43.570;27.832;2023-02-14T03:12:55;100247.84;;;-0.27;100.00
9717;BME280;4897;43.570;27.832;2023-02-14T03:15:33;100262.38;;;-0.13;100.00
9717;BME280;4897;43.570;27.832;2023-02-14T03:18:07;100258.63;;;-0.04;100.00
9717;BME280;4897;43.570;27.832;2023-02-14T03:20:57;100249.53;;;0.09;100.00
9717;BME280;4897;43.570;27.832;2023-02-14T03:23:29;100252.16;;;0.09;100.00
9717;BME280;4897;43.570;27.832;2023-02-14T03:26:04;100242.47;;;0.11;100.00
9717;BME280;4897;43.570;27.832;2023-02-14T03:28:39;100242.31;;;0.17;100.00
9717;BME280;4897;43.570;27.832;2023-02-14T03:31:13;100243.97;;;0.21;100.00
9717;BME280;4897;43.570;27.832;2023-02-14T03:33:48;100223.97;;;0.16;100.00
9717;BME280;4897;43.570;27.832;2023-02-14T03:36:20;100233.53;;;0.18;100.00
9717;BME280;4897;43.570;27.832;2023-02-14T03:38:54;100137.75;;;-0.39;100.00
9717;BME280;4897;43.570;27.832;2023-02-14T03:41:26;100218.25;;;0.00;100.00
9717;BME280;4897;43.570;27.832;2023-02-14T03:43:57;100243.97;;;0.21;100.00
9717;BME280;4897;43.570;27.832;2023-02-14T03:46:27;100214.66;;;0.03;100.00
9717;BME280;4897;43.570;27.832;2023-02-14T03:48:58;100240.59;;;0.16;100.00
9717;BME280;4897;43.570;27.832;2023-02-14T03:51:28;100215.63;;;0.00;100.00
9717;BME280;4897;43.570;27.832;2023-02-14T03:54:01;100182.97;;;-0.27;100.00
9717;BME280;4897;43.570;27.832;2023-02-14T03:56:31;100238.31;;;0.03;100.00
9717;BME280;4897;43.570;27.832;2023-02-14T03:59:05;100252.53;;;-0.06;100.00
9717;BME280;4897;43.570;27.832;2023-02-14T04:01:35;100241.34;;;-0.14;100.00
9717;BME280;4897;43.570;27.832;2023-02-14T04:04:05;100263.25;;;-0.14;100.00
9717;BME280;4897;43.570;27.832;2023-02-14T04:06:34;100184.97;;;-0.71;100.00
9717;BME280;4897;43.570;27.832;2023-02-14T04:09:02;100255.06;;;-0.37;100.00
9717;BME280;4897;43.570;27.832;2023-02-14T04:11:29;100266.97;;;-0.60;100.00
9717;BME280;4897;43.570;27.832;2023-02-14T04:13:59;100258.41;;;-0.68;100.00
9717;BME280;4897;43.570;27.832;2023-02-14T04:16:26;100261.03;;;-0.68;100.00
9717;BME280;4897;43.570;27.832;2023-02-14T04:18:53;100272.44;;;-0.69;100.00
9717;BME280;4897;43.570;27.832;2023-02-14T04:21:37;100258.25;;;-0.62;100.00
9717;BME280;4897;43.570;27.832;2023-02-14T04:24:05;100268.81;;;-0.64;100.00
9717;BME280;4897;43.570;27.832;2023-02-14T04:26:32;100268.44;;;-0.47;100.00
9717;BME280;4897;43.570;27.832;2023-02-14T04:28:59;100280.59;;;-0.43;100.00
9717;BME280;4897;43.570;27.832;2023-02-14T04:31:26;100256.22;;;-0.48;100.00
9717;BME280;4897;43.570;27.832;2023-02-14T04:33:53;100252.53;;;-0.41;100.00
9717;BME280;4897;43.570;27.832;2023-02-14T04:36:20;100262.63;;;-0.25;100.00
9717;BME280;4897;43.570;27.832;2023-02-14T04:38:47;100271.41;;;-0.24;100.00
9717;BME280;4897;43.570;27.832;2023-02-14T04:41:15;100266.97;;;-0.22;100.00
9717;BME280;4897;43.570;27.832;2023-02-14T04:43:42;100255.09;;;-0.38;100.00
9717;BME280;4897;43.570;27.832;2023-02-14T04:46:09;100255.16;;;-0.41;100.00
9717;BME280;4897;43.570;27.832;2023-02-14T04:48:35;100217.00;;;-0.57;100.00
9717;BME280;4897;43.570;27.832;2023-02-14T04:51:03;100261.13;;;-0.35;100.00
9717;BME280;4897;43.570;27.832;2023-02-14T04:53:29;100266.22;;;-0.27;100.00
9717;BME280;4897;43.570;27.832;2023-02-14T04:55:56;100268.91;;;-0.30;100.00
9717;BME280;4897;43.570;27.832;2023-02-14T04:58:25;100273.34;;;-0.32;100.00
9717;BME280;4897;43.570;27.832;2023-02-14T05:00:51;100276.84;;;-0.33;100.00
9717;BME280;4897;43.570;27.832;2023-02-14T05:03:18;100270.22;;;-0.49;100.00
9717;BME280;4897;43.570;27.832;2023-02-14T05:05:45;100290.91;;;-0.34;100.00
9717;BME280;4897;43.570;27.832;2023-02-14T05:08:12;100287.44;;;-0.36;100.00
9717;BME280;4897;43.570;27.832;2023-02-14T05:10:40;100297.19;;;-0.41;100.00
9717;BME280;4897;43.570;27.832;2023-02-14T05:13:06;100260.28;;;-0.73;100.00
9717;BME280;4897;43.570;27.832;2023-02-14T05:15:35;100274.56;;;-0.47;100.00
9717;BME280;4897;43.570;27.832;2023-02-14T05:18:02;100294.41;;;-0.35;100.00
9717;BME280;4897;43.570;27.832;2023-02-14T05:20:30;100298.00;;;-0.38;100.00
9717;BME280;4897;43.570;27.832;2023-02-14T05:22:57;100310.31;;;-0.41;100.00
9717;BME280;4897;43.570;27.832;2023-02-14T05:25:27;100306.53;;;-0.68;100.00
9717;BME280;4897;43.570;27.832;2023-02-14T05:27:54;100321.88;;;-0.48;100.00
9717;BME280;4897;43.570;27.832;2023-02-14T05:30:21;100317.69;;;-0.57;100.00
9717;BME280;4897;43.570;27.832;2023-02-14T05:32:53;100314.72;;;-0.82;100.00
9717;BME280;4897;43.570;27.832;2023-02-14T05:35:20;100303.03;;;-1.10;100.00
9717;BME280;4897;43.570;27.832;2023-02-14T05:37:47;100321.97;;;-0.94;100.00
9717;BME280;4897;43.570;27.832;2023-02-14T05:40:14;100317.56;;;-0.94;100.00
9717;BME280;4897;43.570;27.832;2023-02-14T05:42:41;100292.38;;;-1.01;100.00
9717;BME280;4897;43.570;27.832;2023-02-14T05:45:10;100229.44;;;-1.46;100.00
9717;BME280;4897;43.570;27.832;2023-02-14T05:47:37;100297.94;;;-1.19;100.00
9717;BME280;4897;43.570;27.832;2023-02-14T05:50:06;100287.81;;;-1.37;100.00
9717;BME280;4897;43.570;27.832;2023-02-14T05:52:33;100301.78;;;-0.91;100.00
9717;BME280;4897;43.570;27.832;2023-02-14T05:55:00;100295.88;;;-0.60;100.00
9717;BME280;4897;43.570;27.832;2023-02-14T05:57:27;100299.03;;;-0.45;100.00
9717;BME280;4897;43.570;27.832;2023-02-14T05:59:54;100308.28;;;-0.29;100.00
9717;BME280;4897;43.570;27.832;2023-02-14T06:02:21;100306.19;;;-0.13;100.00
9717;BME280;4897;43.570;27.832;2023-02-14T06:04:48;100303.38;;;-0.06;100.00
9717;BME280;4897;43.570;27.832;2023-02-14T06:07:16;100297.13;;;0.00;100.00
9717;BME280;4897;43.570;27.832;2023-02-14T06:09:43;100297.03;;;0.03;100.00
9717;BME280;4897;43.570;27.832;2023-02-14T06:12:10;100303.25;;;-0.01;100.00
9717;BME280;4897;43.570;27.832;2023-02-14T06:14:37;100253.81;;;-0.22;100.00
9717;BME280;4897;43.570;27.832;2023-02-14T06:17:05;100293.41;;;0.07;100.00
9717;BME280;4897;43.570;27.832;2023-02-14T06:19:32;100286.50;;;0.03;100.00
9717;BME280;4897;43.570;27.832;2023-02-14T06:21:59;100275.06;;;0.06;100.00
9717;BME280;4897;43.570;27.832;2023-02-14T06:24:28;100279.94;;;0.21;100.00
9717;BME280;4897;43.570;27.832;2023-02-14T06:26:54;100281.53;;;0.26;100.00
9717;BME280;4897;43.570;27.832;2023-02-14T06:29:21;100277.69;;;0.39;100.00
9717;BME280;4897;43.570;27.832;2023-02-14T06:31:48;100277.44;;;0.50;100.00
9717;BME280;4897;43.570;27.832;2023-02-14T06:34:15;100276.28;;;0.60;100.00
9717;BME280;4897;43.570;27.832;2023-02-14T06:36:42;100269.09;;;0.65;100.00
9717;BME280;4897;43.570;27.832;2023-02-14T06:39:09;100256.47;;;0.77;100.00
9717;BME280;4897;43.570;27.832;2023-02-14T06:41:37;100269.31;;;0.90;100.00
9717;BME280;4897;43.570;27.832;2023-02-14T06:44:04;100261.94;;;1.02;100.00
9717;BME280;4897;43.570;27.832;2023-02-14T06:46:31;100287.03;;;1.14;100.00
9717;BME280;4897;43.570;27.832;2023-02-14T06:48:58;100243.75;;;1.22;100.00
9717;BME280;4897;43.570;27.832;2023-02-14T06:51:25;100270.34;;;1.44;100.00
9717;BME280;4897;43.570;27.832;2023-02-14T06:53:52;100274.00;;;1.38;100.00
9717;BME280;4897;43.570;27.832;2023-02-14T06:56:19;100279.41;;;1.34;100.00
9717;BME280;4897;43.570;27.832;2023-02-14T06:58:48;100276.06;;;1.29;100.00
9717;BME280;4897;43.570;27.832;2023-02-14T07:01:14;100276.06;;;1.27;100.00
9717;BME280;4897;43.570;27.832;2023-02-14T07:03:41;100286.44;;;1.63;100.00
9717;BME280;4897;43.570;27.832;2023-02-14T07:06:08;100275.31;;;1.81;100.00
9717;BME280;4897;43.570;27.832;2023-02-14T07:08:35;100280.69;;;1.78;100.00
9717;BME280;4897;43.570;27.832;2023-02-14T07:11:02;100275.88;;;1.90;100.00
9717;BME280;4897;43.570;27.832;2023-02-14T07:13:29;100281.94;;;1.94;100.00
9717;BME280;4897;43.570;27.832;2023-02-14T07:15:57;100268.53;;;2.00;100.00
9717;BME280;4897;43.570;27.832;2023-02-14T07:18:25;100276.50;;;2.24;100.00
9717;BME280;4897;43.570;27.832;2023-02-14T07:20:52;100259.34;;;2.11;100.00
9717;BME280;4897;43.570;27.832;2023-02-14T07:23:18;100254.66;;;2.21;100.00
9717;BME280;4897;43.570;27.832;2023-02-14T07:25:48;100260.88;;;2.18;100.00
9717;BME280;4897;43.570;27.832;2023-02-14T07:28:15;100269.63;;;2.20;100.00
9717;BME280;4897;43.570;27.832;2023-02-14T07:30:42;100270.59;;;2.42;100.00
9717;BME280;4897;43.570;27.832;2023-02-14T07:33:11;100256.66;;;2.64;100.00
9717;BME280;4897;43.570;27.832;2023-02-14T07:35:38;100231.78;;;2.46;100.00
9717;BME280;4897;43.570;27.832;2023-02-14T07:38:05;100246.25;;;2.59;100.00
9717;BME280;4897;43.570;27.832;2023-02-14T07:40:32;100222.66;;;2.55;100.00
9717;BME280;4897;43.570;27.832;2023-02-14T07:42:59;100232.09;;;2.62;100.00
9717;BME280;4897;43.570;27.832;2023-02-14T07:45:26;100244.81;;;2.75;100.00
9717;BME280;4897;43.570;27.832;2023-02-14T07:47:54;100249.81;;;2.83;100.00
9717;BME280;4897;43.570;27.832;2023-02-14T07:50:24;100238.31;;;2.84;100.00
9717;BME280;4897;43.570;27.832;2023-02-14T07:52:51;100229.09;;;2.95;100.00
9717;BME280;4897;43.570;27.832;2023-02-14T07:55:18;100231.44;;;3.03;100.00
9717;BME280;4897;43.570;27.832;2023-02-14T07:57:47;100236.22;;;3.16;100.00
9717;BME280;4897;43.570;27.832;2023-02-14T08:00:14;100199.34;;;3.13;100.00
9717;BME280;4897;43.570;27.832;2023-02-14T08:02:41;100220.94;;;3.24;100.00
9717;BME280;4897;43.570;27.832;2023-02-14T08:05:09;100217.09;;;3.33;100.00
9717;BME280;4897;43.570;27.832;2023-02-14T08:07:37;100225.09;;;3.53;100.00
9717;BME280;4897;43.570;27.832;2023-02-14T08:10:06;100221.84;;;3.68;100.00
9717;BME280;4897;43.570;27.832;2023-02-14T08:12:42;100221.84;;;3.68;100.00
9717;BME280;4897;43.570;27.832;2023-02-14T08:15:24;100219.38;;;3.64;100.00
9717;BME280;4897;43.570;27.832;2023-02-14T08:18:09;100203.66;;;3.61;100.00
9717;BME280;4897;43.570;27.832;2023-02-14T08:20:36;100195.50;;;3.65;100.00
9717;BME280;4897;43.570;27.832;2023-02-14T08:23:04;100204.13;;;3.70;100.00
9717;BME280;4897;43.570;27.832;2023-02-14T08:25:31;100210.00;;;3.98;100.00
9717;BME280;4897;43.570;27.832;2023-02-14T08:28:00;100185.09;;;4.04;100.00
9717;BME280;4897;43.570;27.832;2023-02-14T08:30:27;100216.41;;;4.15;100.00
9717;BME280;4897;43.570;27.832;2023-02-14T08:32:54;100210.97;;;4.18;100.00
9717;BME280;4897;43.570;27.832;2023-02-14T08:35:21;100189.94;;;4.15;100.00
9717;BME280;4897;43.570;27.832;2023-02-14T08:37:48;100226.41;;;4.48;100.00
9717;BME280;4897;43.570;27.832;2023-02-14T08:40:17;100218.19;;;4.54;100.00
9717;BME280;4897;43.570;27.832;2023-02-14T08:42:44;100207.19;;;4.43;100.00
9717;BME280;4897;43.570;27.832;2023-02-14T08:45:11;100210.38;;;4.51;100.00
9717;BME280;4897;43.570;27.832;2023-02-14T08:47:39;100219.00;;;4.56;100.00
9717;BME280;4897;43.570;27.832;2023-02-14T08:50:10;100212.72;;;4.59;100.00
9717;BME280;4897;43.570;27.832;2023-02-14T08:52:37;100205.00;;;4.73;100.00
9717;BME280;4897;43.570;27.832;2023-02-14T08:55:05;100202.59;;;4.87;100.00
9717;BME280;4897;43.570;27.832;2023-02-14T08:57:33;100191.00;;;5.08;100.00
9717;BME280;4897;43.570;27.832;2023-02-14T09:00:00;100175.97;;;5.27;100.00
9717;BME280;4897;43.570;27.832;2023-02-14T09:02:28;100181.94;;;6.55;100.00
9717;BME280;4897;43.570;27.832;2023-02-14T09:04:55;100192.72;;;8.41;100.00
9717;BME280;4897;43.570;27.832;2023-02-14T09:07:22;100174.53;;;9.60;100.00
9717;BME280;4897;43.570;27.832;2023-02-14T09:09:49;100171.47;;;9.66;100.00
9717;BME280;4897;43.570;27.832;2023-02-14T09:12:16;100153.38;;;10.75;100.00
9717;BME280;4897;43.570;27.832;2023-02-14T09:14:44;100168.19;;;10.28;96.39
9717;BME280;4897;43.570;27.832;2023-02-14T09:17:12;100168.03;;;10.69;88.46
9717;BME280;4897;43.570;27.832;2023-02-14T09:19:40;100139.38;;;10.84;77.76
9717;BME280;4897;43.570;27.832;2023-02-14T09:22:08;100154.56;;;10.96;84.80
9717;BME280;4897;43.570;27.832;2023-02-14T09:24:37;100151.63;;;11.24;76.88
9717;BME280;4897;43.570;27.832;2023-02-14T09:27:04;100098.47;;;11.90;68.54
9717;BME280;4897;43.570;27.832;2023-02-14T09:29:33;100129.69;;;12.94;59.82
9717;BME280;4897;43.570;27.832;2023-02-14T09:32:01;100159.16;;;12.61;59.09
9717;BME280;4897;43.570;27.832;2023-02-14T09:34:29;100157.03;;;12.42;60.97
9717;BME280;4897;43.570;27.832;2023-02-14T09:36:56;100155.78;;;12.70;60.74
9717;BME280;4897;43.570;27.832;2023-02-14T09:39:41;100141.44;;;13.26;56.57
9717;BME280;4897;43.570;27.832;2023-02-14T09:42:21;100159.69;;;13.77;54.62
9717;BME280;4897;43.570;27.832;2023-02-14T09:44:55;100158.75;;;12.89;55.80
9717;BME280;4897;43.570;27.832;2023-02-14T09:47:31;100139.66;;;13.81;53.77
9717;BME280;4897;43.570;27.832;2023-02-14T09:50:00;100124.84;;;13.75;52.20
9717;BME280;4897;43.570;27.832;2023-02-14T09:52:29;100132.38;;;12.94;55.73
9717;BME280;4897;43.570;27.832;2023-02-14T09:54:58;100144.38;;;12.44;58.28
9717;BME280;4897;43.570;27.832;2023-02-14T09:57:34;100156.56;;;12.48;59.51
9717;BME280;4897;43.570;27.832;2023-02-14T10:00:16;100147.22;;;11.36;65.10
9717;BME280;4897;43.570;27.832;2023-02-14T10:02:56;100146.28;;;11.60;68.13
9717;BME280;4897;43.570;27.832;2023-02-14T10:05:26;100136.75;;;12.84;59.72
9717;BME280;4897;43.570;27.832;2023-02-14T10:08:02;100140.88;;;12.55;55.94
9717;BME280;4897;43.570;27.832;2023-02-14T10:10:38;100117.97;;;12.84;53.60
9717;BME280;4897;43.570;27.832;2023-02-14T10:13:12;100101.56;;;12.43;53.18
9717;BME280;4897;43.570;27.832;2023-02-14T10:15:43;100115.63;;;13.68;50.73
9717;BME280;4897;43.570;27.832;2023-02-14T10:18:17;100135.75;;;13.62;49.07
9717;BME280;4897;43.570;27.832;2023-02-14T10:20:48;100128.97;;;13.36;51.18
9717;BME280;4897;43.570;27.832;2023-02-14T10:23:26;100121.59;;;13.60;51.38
9717;BME280;4897;43.570;27.832;2023-02-14T10:26:02;100020.84;;;12.79;50.57
9717;BME280;4897;43.570;27.832;2023-02-14T10:28:31;100082.59;;;12.68;52.20
9717;BME280;4897;43.570;27.832;2023-02-14T10:31:18;100113.34;;;12.86;52.30
9717;BME280;4897;43.570;27.832;2023-02-14T10:33:52;100107.72;;;13.44;51.19
9717;BME280;4897;43.570;27.832;2023-02-14T10:36:35;100097.06;;;13.97;48.71
9717;BME280;4897;43.570;27.832;2023-02-14T10:39:16;100079.88;;;14.09;49.47
9717;BME280;4897;43.570;27.832;2023-02-14T10:41:51;100084.00;;;14.13;47.93
9717;BME280;4897;43.570;27.832;2023-02-14T10:44:29;100099.59;;;13.67;47.80
9717;BME280;4897;43.570;27.832;2023-02-14T10:47:04;100097.78;;;13.56;49.01
9717;BME280;4897;43.570;27.832;2023-02-14T10:49:46;100091.25;;;13.81;49.34
9717;BME280;4897;43.570;27.832;2023-02-14T10:52:20;100089.88;;;14.18;47.76
9717;BME280;4897;43.570;27.832;2023-02-14T10:54:53;100072.00;;;14.58;45.74
9717;BME280;4897;43.570;27.832;2023-02-14T10:57:25;100073.38;;;15.03;44.71
9717;BME280;4897;43.570;27.832;2023-02-14T10:59:57;99998.50;;;14.16;44.87
9717;BME280;4897;43.570;27.832;2023-02-14T11:02:33;100051.81;;;13.70;45.98
9717;BME280;4897;43.570;27.832;2023-02-14T11:05:03;100013.66;;;14.59;44.36
9717;BME280;4897;43.570;27.832;2023-02-14T11:07:31;100060.41;;;15.77;41.73
9717;BME280;4897;43.570;27.832;2023-02-14T11:09:58;100076.22;;;14.10;43.86
9717;BME280;4897;43.570;27.832;2023-02-14T11:12:35;100060.06;;;14.10;44.43
9717;BME280;4897;43.570;27.832;2023-02-14T11:15:17;100065.00;;;15.46;42.91
9717;BME280;4897;43.570;27.832;2023-02-14T11:17:45;100054.28;;;16.23;40.34
9717;BME280;4897;43.570;27.832;2023-02-14T11:20:25;100042.63;;;16.22;39.70
9717;BME280;4897;43.570;27.832;2023-02-14T11:22:52;100063.19;;;15.56;39.98
9717;BME280;4897;43.570;27.832;2023-02-14T11:25:20;100054.28;;;16.13;40.75
9717;BME280;4897;43.570;27.832;2023-02-14T11:27:50;100043.78;;;15.91;40.38
9717;BME280;4897;43.570;27.832;2023-02-14T11:30:26;100034.38;;;16.33;39.79
9717;BME280;4897;43.570;27.832;2023-02-14T11:32:53;100020.88;;;16.24;39.49
9717;BME280;4897;43.570;27.832;2023-02-14T11:35:23;100036.94;;;14.99;40.47
9717;BME280;4897;43.570;27.832;2023-02-14T11:37:56;100050.38;;;13.12;44.54
9717;BME280;4897;43.570;27.832;2023-02-14T11:40:26;100043.25;;;13.33;45.26
9717;BME280;4897;43.570;27.832;2023-02-14T11:42:57;100034.66;;;14.23;43.99
9717;BME280;4897;43.570;27.832;2023-02-14T11:45:34;100036.16;;;13.96;42.34
9717;BME280;4897;43.570;27.832;2023-02-14T11:48:08;100041.59;;;12.99;44.98
9717;BME280;4897;43.570;27.832;2023-02-14T11:50:37;100018.41;;;11.62;47.66
9717;BME280;4897;43.570;27.832;2023-02-14T11:53:09;100046.13;;;11.50;50.35
9717;BME280;4897;43.570;27.832;2023-02-14T11:55:38;100042.81;;;13.17;48.29
9717;BME280;4897;43.570;27.832;2023-02-14T11:58:06;100010.94;;;13.02;45.84
9717;BME280;4897;43.570;27.832;2023-02-14T12:00:33;100021.31;;;12.29;47.74
9717;BME280;4897;43.570;27.832;2023-02-14T12:03:03;100019.38;;;11.74;49.51
9717;BME280;4897;43.570;27.832;2023-02-14T12:05:35;100045.31;;;11.37;51.03
9717;BME280;4897;43.570;27.832;2023-02-14T12:08:11;100029.63;;;10.96;52.44
9717;BME280;4897;43.570;27.832;2023-02-14T12:10:38;100044.50;;;11.00;54.38
9717;BME280;4897;43.570;27.832;2023-02-14T12:13:21;100030.56;;;11.08;53.18
9717;BME280;4897;43.570;27.832;2023-02-14T12:15:52;100032.69;;;10.67;53.90
9717;BME280;4897;43.570;27.832;2023-02-14T12:18:48;100039.66;;;10.57;56.25
9717;BME280;4897;43.570;27.832;2023-02-14T12:21:32;100031.75;;;10.42;57.71
9717;BME280;4897;43.570;27.832;2023-02-14T12:24:12;99991.13;;;10.12;58.37
9717;BME280;4897;43.570;27.832;2023-02-14T12:26:44;100012.47;;;10.63;56.89
9717;BME280;4897;43.570;27.832;2023-02-14T12:29:20;100020.63;;;10.49;56.58
9717;BME280;4897;43.570;27.832;2023-02-14T12:31:51;100018.59;;;11.01;54.67
9717;BME280;4897;43.570;27.832;2023-02-14T12:34:19;99993.06;;;11.08;53.84
9717;BME280;4897;43.570;27.832;2023-02-14T12:37:11;100010.69;;;10.87;54.41
9717;BME280;4897;43.570;27.832;2023-02-14T12:40:02;99997.66;;;10.95;54.22
9717;BME280;4897;43.570;27.832;2023-02-14T12:42:47;99979.66;;;11.79;50.84
9717;BME280;4897;43.570;27.832;2023-02-14T12:45:23;99973.91;;;13.59;46.21
9717;BME280;4897;43.570;27.832;2023-02-14T12:48:00;99982.00;;;13.80;43.58
9717;BME280;4897;43.570;27.832;2023-02-14T12:50:40;99951.19;;;13.63;42.75
9717;BME280;4897;43.570;27.832;2023-02-14T12:53:57;99962.56;;;13.35;42.72
9717;BME280;4897;43.570;27.832;2023-02-14T12:56:42;99972.69;;;13.84;42.56
9717;BME280;4897;43.570;27.832;2023-02-14T12:59:26;99990.25;;;12.48;43.25
9717;BME280;4897;43.570;27.832;2023-02-14T13:02:27;99985.56;;;11.95;44.45
9717;BME280;4897;43.570;27.832;2023-02-14T13:05:10;99988.78;;;11.18;47.69
9717;BME280;4897;43.570;27.832;2023-02-14T13:07:50;99989.88;;;10.18;51.58
9717;BME280;4897;43.570;27.832;2023-02-14T13:10:30;99982.50;;;9.57;56.92
9717;BME280;4897;43.570;27.832;2023-02-14T13:13:05;99949.47;;;9.06;58.52
9717;BME280;4897;43.570;27.832;2023-02-14T13:15:41;99999.59;;;9.01;61.66
9717;BME280;4897;43.570;27.832;2023-02-14T13:18:17;99899.13;;;8.34;66.95
9717;BME280;4897;43.570;27.832;2023-02-14T13:20:50;99995.75;;;8.93;69.46
9717;BME280;4897;43.570;27.832;2023-02-14T13:23:21;100004.19;;;10.17;64.25
9717;BME280;4897;43.570;27.832;2023-02-14T13:25:55;99960.09;;;11.31;54.98
9717;BME280;4897;43.570;27.832;2023-02-14T13:28:24;99954.78;;;12.12;52.48
9717;BME280;4897;43.570;27.832;2023-02-14T13:30:53;99963.19;;;12.51;49.85